• Join FlightAware (Why Join?)
  • Login
  • US Flag 
08:40PM EDT


 

Airport Tracker/Info


-or-


 

Live Flight TrackerFlight Track Log ✈ UAL4530 ✈ 25-Apr-2013 ✈ KEWR - KMCI

Flight Track Log - Related Links

Times and Time Zones

All times are in EDT time to prevent confusion due to time zone crossing. See the UAL4530 flight status page for this flight to view local times or setup timezone preferences in your user account.

Time Position Orientation Groundspeed Altitude Reporting Facility
EDT Latitude Longitude Course Direction KTS MPH feet Rate Location/Type
01:32PM 40.7333 -74.1333 276° West 194 223 1,600  Level New York TRACON
01:33PM 40.7833 -74.0833 37° Northeast 250 288 3,800 2,700 Climbing New York TRACON
01:34PM 40.8000 -74.1500 288° West 244 281 6,800 2,880 Climbing New York TRACON
01:35PM 40.7440 -74.6337 277° West  Level FlightAware Approximate
01:35PM 40.7833 -74.2500 258° West 254 292 9,600  Level New York TRACON
01:36PM 40.7543 -74.7552 276° West  Level FlightAware Approximate
01:36PM 40.7500 -74.3500 246° West 290 334 11,000  Level New York TRACON
01:37PM 40.7636 -74.8769 276° West  Level FlightAware Approximate
01:37PM 40.7500 -74.4500 270° West 320 368 11,900  Level New York TRACON
01:38PM 40.7500 -74.5833 270° West 332 382 12,600 1,020 Climbing New York TRACON
01:39PM 40.7667 -74.6833 282° West 326 375 14,000 1,500 Climbing New York TRACON
01:39PM 40.7683 -74.7247 273° West 331 381 14,400 1,680 Climbing New York Center
01:40PM 40.7797 -74.8214 279° West 340 391 16,100 1,620 Climbing New York Center
01:41PM 40.7897 -74.9508 276° West 350 403 17,700 1,320 Climbing New York Center
01:42PM 40.8000 -75.0694 277° West 340 391 18,800 1,140 Climbing New York Center
01:43PM 40.7981 -75.1761 269° West 332 382 20,000 1,260 Climbing New York Center
01:44PM 40.7769 -75.2953 257° West 327 376 21,400 1,380 Climbing New York Center
01:45PM 40.7536 -75.4117 255° West 332 382 22,800 1,320 Climbing New York Center
01:46PM 40.7183 -75.5186 247° West 327 376 24,100 1,380 Climbing New York Center
01:47PM 40.6764 -75.6253 243° Southwest 327 376 25,600 1,440 Climbing New York Center
01:48PM 40.6389 -75.7267 244° Southwest 327 376 27,100 1,560 Climbing New York Center
01:49PM 40.6011 -75.8306 244° Southwest 321 369 28,700 1,620 Climbing New York Center
01:50PM 40.5594 -75.9286 241° Southwest 314 361 30,300 1,560 Climbing New York Center
01:51PM 40.5194 -76.0319 243° Southwest 303 349 31,900 1,500 Climbing New York Center
01:52PM 40.4842 -76.1219 243° Southwest 297 342 33,400 1,260 Climbing New York Center
01:53PM 40.4508 -76.2094 243° Southwest 285 328 34,500 780 Climbing New York Center
01:54PM 40.4197 -76.2969 245° Southwest 278 320 35,000 540 Climbing New York Center
01:55PM 40.3822 -76.3867 241° Southwest 278 320 35,600 480 Climbing New York Center
01:56PM 40.3728 -76.4922 263° West 278 320 36,000 180 Climbing New York Center
01:57PM 40.3672 -76.6089 266° West 292 336 36,000  Level New York Center
01:58PM 40.3594 -76.7228 265° West 313 360 36,000  Level New York Center
01:59PM 40.3533 -76.8419 266° West 324 373 36,000  Level New York Center
02:00PM 40.3425 -76.9719 264° West 342 394 36,000  Level New York Center
02:01PM 40.3356 -77.1047 266° West 356 410 36,000  Level New York Center
02:02PM 40.3242 -77.2372 264° West 367 422 36,000  Level New York Center
02:04PM 40.3097 -77.4519 265° West 372 428 36,000  Level Cleveland Center
02:05PM 40.3008 -77.5883 265° West 372 428 36,000  Level Cleveland Center
02:06PM 40.2917 -77.7194 265° West 372 428 36,000  Level Cleveland Center
02:07PM 40.2842 -77.8369 265° West 364 419 36,000  Level Cleveland Center
02:08PM 40.2689 -77.9872 262° West 378 435 36,000  Level Cleveland Center
02:09PM 40.2594 -78.1208 265° West 378 435 36,000  Level Cleveland Center
02:10PM 40.2497 -78.2517 264° West 378 435 36,000  Level Cleveland Center
02:11PM 40.2378 -78.3828 263° West 372 428 36,000  Level Cleveland Center
02:12PM 40.2278 -78.5164 264° West 372 428 36,000  Level Cleveland Center
02:13PM 40.2175 -78.6472 264° West 372 428 36,000  Level Cleveland Center
02:14PM 40.2050 -78.7781 263° West 372 428 36,000  Level Cleveland Center
02:15PM 40.1967 -78.9086 265° West 372 428 36,000  Level Cleveland Center
02:16PM 40.1839 -79.0422 263° West 372 428 36,000  Level Cleveland Center
02:17PM 40.1711 -79.1731 263° West 372 428 36,000  Level Cleveland Center
02:18PM 40.1600 -79.3036 264° West 372 428 36,000  Level Cleveland Center
02:19PM 40.1531 -79.4178 265° West 365 420 36,000  Level Cleveland Center
02:20PM 40.1417 -79.5483 264° West 365 420 36,000  Level Cleveland Center
02:21PM 40.1303 -79.6817 264° West 370 426 36,000  Level Cleveland Center
02:22PM 40.1186 -79.8094 263° West 370 426 36,000  Level Cleveland Center
02:23PM 40.1069 -79.9397 263° West 370 426 36,000  Level Cleveland Center
02:24PM 40.0931 -80.0811 263° West 370 426 36,000  Level Cleveland Center
02:25PM 40.0936 -80.2139 270° West 365 420 36,000  Level Cleveland Center
02:26PM 40.0981 -80.3417 273° West 360 414 36,000  Level Cleveland Center
02:27PM 40.0983 -80.4719 270° West 360 414 36,000  Level Cleveland Center
02:28PM 40.1006 -80.6019 271° West 365 420 36,000  Level Cleveland Center
02:30PM 40.0986 -80.8567 270° West 365 420 36,000  Level Indianapolis Center
02:31PM 40.0994 -80.9914 271° West 366 421 36,000  Level Indianapolis Center
02:32PM 40.1003 -81.1250 271° West 366 421 36,000  Level Indianapolis Center
02:33PM 40.1017 -81.2617 271° West 372 428 36,000  Level Indianapolis Center
02:34PM 40.1019 -81.3967 270° West 370 426 36,000  Level Indianapolis Center
02:35PM 40.1017 -81.5342 270° West 373 429 36,000  Level Indianapolis Center
02:36PM 40.1031 -81.6706 271° West 373 429 36,000  Level Indianapolis Center
02:37PM 40.1042 -81.8228 271° West 375 432 36,000  Level Indianapolis Center
02:38PM 40.1033 -81.9586 270° West 373 429 36,000  Level Indianapolis Center
02:39PM 40.1028 -82.0919 270° West 366 421 36,000  Level Indianapolis Center
02:40PM 40.1028 -82.2264 270° West 367 422 36,000  Level Indianapolis Center
02:41PM 40.1022 -82.3575 270° West 362 417 36,000  Level Indianapolis Center
02:42PM 40.1017 -82.5103 270° West 358 412 36,000  Level Indianapolis Center
02:43PM 40.1011 -82.6417 270° West 359 413 36,000 -60 Level Indianapolis Center
02:44PM 40.0994 -82.7717 269° West 357 411 35,900  Descending Indianapolis Center
02:45PM 40.0986 -82.9028 270° West 357 411 36,000  Climbing Indianapolis Center
02:46PM 40.0978 -83.0311 270° West 355 409 36,000  Level Indianapolis Center
02:47PM 40.0961 -83.1608 269° West 355 409 36,000  Level Indianapolis Center
02:48PM 40.0947 -83.2911 269° West 357 411 36,000  Level Indianapolis Center
02:50PM 40.0925 -83.4419 269° West 357 411 36,000  Level Indianapolis Center
02:51PM 40.0903 -83.5708 269° West 357 411 36,000  Level Indianapolis Center
02:52PM 40.0881 -83.7003 269° West 356 410 36,000  Level Indianapolis Center
02:53PM 40.0861 -83.8308 269° West 360 414 36,000  Level Indianapolis Center
02:54PM 40.0842 -83.9619 269° West 359 413 36,000 -60 Level Indianapolis Center
02:55PM 40.0817 -84.1147 269° West 358 412 35,900  Descending Indianapolis Center
02:56PM 40.0794 -84.2475 269° West 363 418 36,000  Climbing Indianapolis Center
02:57PM 40.0758 -84.3800 268° West 364 419 36,000  Level Indianapolis Center
02:58PM 40.0731 -84.5122 268° West 362 417 36,000  Level Indianapolis Center
02:59PM 40.0694 -84.6439 268° West 362 417 36,000  Level Indianapolis Center
03:00PM 40.0653 -84.7764 268° West 361 415 36,000  Level Indianapolis Center
03:01PM 40.0628 -84.9100 269° West 364 419 36,000  Level Indianapolis Center
03:02PM 40.0586 -85.0644 268° West 364 419 36,000  Level Indianapolis Center
03:03PM 40.0544 -85.1975 268° West 364 419 36,000  Level Indianapolis Center
03:04PM 40.0514 -85.3306 268° West 366 421 36,000  Level Indianapolis Center
03:05PM 40.0469 -85.4639 268° West 368 423 36,000  Level Indianapolis Center
03:06PM 40.0425 -85.5975 268° West 367 422 36,000  Level Indianapolis Center
03:07PM 40.0383 -85.7300 268° West 364 419 36,000  Level Indianapolis Center
03:08PM 40.0333 -85.8858 268° West 366 421 36,000  Level Indianapolis Center
03:09PM 40.0281 -86.0183 267° West 366 421 36,000  Level Indianapolis Center
03:10PM 40.0233 -86.1497 267° West 365 420 36,000  Level Indianapolis Center
03:11PM 40.0206 -86.2358 268° West 362 417 36,000  Level Chicago Center
03:12PM 40.0158 -86.3656 267° West 361 415 36,000  Level Chicago Center
03:12PM 40.0142 -86.4092 267° West 360 414 36,000  Level Indianapolis Center
03:13PM 40.0078 -86.5600 267° West 358 412 36,000  Level Indianapolis Center
03:14PM 40.0022 -86.6914 267° West 361 415 36,000  Level Indianapolis Center
03:16PM 39.9936 -86.9078 267° West 360 414 36,000  Level Chicago Center
03:16PM 39.9914 -86.9492 266° West 353 406 36,000  Level Indianapolis Center
03:17PM 39.9853 -87.0783 267° West 355 409 36,000  Level Indianapolis Center
03:18PM 39.9806 -87.2078 267° West 356 410 36,000  Level Indianapolis Center
03:19PM 39.9725 -87.3583 266° West 356 410 36,000  Level Indianapolis Center
03:21PM 39.9675 -87.4872 267° West 355 409 36,000  Level Indianapolis Center
03:22PM 39.9606 -87.6172 266° West 358 412 36,000  Level Indianapolis Center
03:23PM 39.9539 -87.7472 266° West 357 411 36,000  Level Indianapolis Center
03:24PM 39.9464 -87.8761 266° West 356 410 36,000  Level Indianapolis Center
03:24PM 39.9428 -87.9619 267° West 353 406 36,000  Level Chicago Center
03:25PM 39.9364 -88.0919 266° West 357 411 36,000  Level Chicago Center
03:26PM 39.9283 -88.2342 266° West 355 409 36,000  Level Chicago Center
03:27PM 39.9228 -88.3619 267° West 353 406 36,000  Level Chicago Center
03:28PM 39.9169 -88.4139 262° West 356 410 36,000  Level Kansas City Center
03:29PM 39.9097 -88.5406 266° West 353 406 36,000  Level Kansas City Center
03:30PM 39.9031 -88.6681 266° West 354 407 36,000  Level Kansas City Center
03:31PM 39.8947 -88.7953 265° West 353 406 36,000  Level Kansas City Center
03:32PM 39.8878 -88.9228 266° West 353 406 36,000  Level Kansas City Center
03:33PM 39.8806 -89.0492 266° West 351 404 36,000  Level Kansas City Center
03:34PM 39.8719 -89.1753 265° West 350 403 36,000  Level Kansas City Center
03:35PM 39.8631 -89.3258 266° West 348 400 36,000  Level Kansas City Center
03:36PM 39.8542 -89.4514 265° West 348 400 36,000  Level Kansas City Center
03:37PM 39.8461 -89.5769 265° West 348 400 36,000  Level Kansas City Center
03:38PM 39.8383 -89.7039 265° West 350 403 36,000  Level Kansas City Center
03:39PM 39.8408 -89.8286 272° West 347 399 36,000  Level Kansas City Center
03:40PM 39.8419 -89.9500 271° West 339 390 36,000  Level Kansas City Center
03:41PM 39.8433 -90.0703 271° West 335 386 36,000  Level Kansas City Center
03:42PM 39.8444 -90.2150 271° West 335 386 36,000  Level Kansas City Center
03:43PM 39.8450 -90.3375 270° West 334 384 36,000  Level Kansas City Center
03:44PM 39.8472 -90.4592 271° West 335 386 36,000  Level Kansas City Center
03:45PM 39.8475 -90.5822 270° West 338 389 36,000  Level Kansas City Center
03:46PM 39.8469 -90.7025 270° West 335 386 36,000  Level Kansas City Center
03:47PM 39.8475 -90.8253 270° West 337 388 36,000  Level Kansas City Center
03:48PM 39.8481 -90.9478 270° West 337 388 36,000  Level Kansas City Center
03:49PM 39.8489 -91.0803 271° West 337 388 36,000  Level Kansas City Center
03:50PM 39.8486 -91.2011 270° West 337 388 36,000  Level Kansas City Center
03:52PM 39.8447 -91.3461 268° West 336 387 36,000  Level Kansas City Center
03:53PM 39.8336 -91.4694 263° West 342 394 36,000  Level Kansas City Center
03:54PM 39.8236 -91.5919 264° West 344 396 36,000  Level Kansas City Center
03:55PM 39.8161 -91.7136 265° West 340 391 36,000  Level Kansas City Center
03:56PM 39.8058 -91.8372 264° West 342 394 36,000  Level Kansas City Center
03:57PM 39.7964 -91.9597 264° West 344 396 36,000  Level Kansas City Center
03:58PM 39.7861 -92.1050 265° West 340 391 36,000  Level Kansas City Center
03:59PM 39.7761 -92.2294 264° West 344 396 36,000 -660 Level Kansas City Center
04:00PM 39.7661 -92.3525 264° West 344 396 34,700 -1,680 Descending Kansas City Center
04:01PM 39.7556 -92.4758 264° West 344 396 32,600 -1,980 Descending Kansas City Center
04:02PM 39.7453 -92.5986 264° West 344 396 30,600 -2,220 Descending Kansas City Center
04:03PM 39.7317 -92.7553 264° West 353 406 28,100 -2,280 Descending Kansas City Center
04:04PM 39.7197 -92.8914 264° West 364 419 26,100 -2,040 Descending Kansas City Center
04:06PM 39.6944 -93.1736 263° West 391 450 21,800 -2,040 Descending Kansas City Center
04:07PM 39.6825 -93.3056 263° West 375 432 19,700 -1,980 Descending Kansas City Center
04:08PM 39.6722 -93.4344 264° West 365 420 17,800 -2,160 Descending Kansas City Center
04:09PM 39.6578 -93.5833 263° West 353 406 15,300 -2,280 Descending Kansas City Center
04:10PM 39.6450 -93.7067 262° West 348 400 13,100 -1,680 Descending Kansas City Center
04:11PM 39.6333 -93.8431 264° West 343 395 12,000 -540 Descending Kansas City Center
04:12PM 39.5928 -93.9525 244° Southwest 353 406 12,000 -540 Level Kansas City Center
04:13PM 39.5314 -94.0711 236° Southwest 355 409 11,000 -960 Descending Kansas City Center
04:14PM 39.5058 -94.1819 253° West 336 387 10,000 -540 Descending Kansas City Center
04:15PM 39.4833 -94.2736 252° West 264 304 9,900 -1,080 Descending Kansas City Center
04:16PM 39.4600 -94.3686 252° West 247 284 7,800 -1,980 Descending Kansas City Center
04:17PM 39.4419 -94.4503 254° West 246 283 5,900 -1,920 Descending Kansas City Center
04:18PM 39.4225 -94.5461 255° West 247 284 3,900 -1,980 Descending Kansas City Center